Time;durP1;ratioP1;P1;durP2;ratioP2;P2;SDS_P1;SDS_P2;PMS_P1;PMS_P2;Temp;Humidity;BMP_temperature;BMP_pressure;BME280_temperature;BME280_humidity;BME280_pressure;Samples;Min_cycle;Max_cycle;Signal;HPM_P1;HPM_P2
2021/06/13 00:01:37;;;;;;;7.57;4.70;;;19.50;99.90;;;;;;5034624;28;20390;-78
2021/06/13 00:04:04;;;;;;;5.05;4.22;;;19.40;99.90;;;;;;5035958;28;20362;-77
2021/06/13 00:06:30;;;;;;;7.50;4.68;;;19.40;99.90;;;;;;5036159;28;20067;-77
2021/06/13 00:08:56;;;;;;;7.07;4.55;;;19.40;99.90;;;;;;5035874;28;20017;-77
2021/06/13 00:11:22;;;;;;;5.82;4.35;;;19.40;99.90;;;;;;5034517;28;20112;-77
2021/06/13 00:13:49;;;;;;;9.60;5.25;;;19.40;99.90;;;;;;5035819;28;20033;-78
2021/06/13 00:16:16;;;;;;;7.10;4.20;;;19.30;99.90;;;;;;5035723;28;20032;-77
2021/06/13 00:18:42;;;;;;;6.13;4.93;;;19.30;99.90;;;;;;5034391;28;20029;-77
2021/06/13 00:21:08;;;;;;;5.88;4.32;;;19.30;99.90;;;;;;5034265;28;20025;-77
2021/06/13 00:23:34;;;;;;;6.85;4.95;;;19.20;99.90;;;;;;5035849;28;20093;-78
2021/06/13 00:26:00;;;;;;;10.20;4.90;;;19.30;99.90;;;;;;5035860;28;20084;-77
2021/06/13 00:28:25;;;;;;;9.32;4.57;;;19.30;99.90;;;;;;5035529;28;20048;-77
2021/06/13 00:30:51;;;;;;;8.80;4.70;;;19.30;99.90;;;;;;5035759;28;20413;-77
2021/06/13 00:33:17;;;;;;;11.02;4.72;;;19.20;99.90;;;;;;5035413;28;20029;-77
2021/06/13 00:35:43;;;;;;;9.77;5.07;;;19.20;99.90;;;;;;5033882;28;20049;-77
2021/06/13 00:38:08;;;;;;;8.15;4.45;;;19.10;99.90;;;;;;5034079;28;20501;-77
2021/06/13 00:40:35;;;;;;;6.78;4.85;;;19.10;99.90;;;;;;5033906;28;20033;-78
2021/06/13 00:43:01;;;;;;;7.30;4.55;;;19.20;99.90;;;;;;5033575;28;20485;-77
2021/06/13 00:45:27;;;;;;;6.57;4.45;;;19.00;99.90;;;;;;5033938;28;20021;-77
2021/06/13 00:47:54;;;;;;;6.55;4.80;;;19.10;99.90;;;;;;5035137;28;20021;-77
2021/06/13 00:50:28;;;;;;;10.35;4.65;;;19.10;99.90;;;;;;5035057;28;20108;-78
2021/06/13 00:52:54;;;;;;;11.48;4.80;;;19.10;99.90;;;;;;5035100;28;20029;-77
2021/06/13 00:55:20;;;;;;;11.43;4.90;;;19.00;99.90;;;;;;5033707;28;20164;-78
2021/06/13 00:57:46;;;;;;;8.40;4.03;;;18.90;99.90;;;;;;5034992;28;20143;-77
2021/06/13 01:00:12;;;;;;;8.15;4.53;;;19.00;99.90;;;;;;5033578;28;20116;-77
2021/06/13 01:02:38;;;;;;;7.95;4.90;;;19.00;99.90;;;;;;5034856;28;20021;-77
2021/06/13 01:05:05;;;;;;;5.57;4.40;;;19.10;99.90;;;;;;5033560;28;20031;-77
2021/06/13 01:08:01;;;;;;;9.50;4.68;;;19.10;99.90;;;;;;5034828;28;20526;-77
2021/06/13 01:10:54;;;;;;;10.45;5.07;;;19.10;99.90;;;;;;5034753;28;20480;-77
2021/06/13 01:13:43;;;;;;;9.48;4.63;;;18.90;99.90;;;;;;5034735;28;20611;-77
2021/06/13 01:16:42;;;;;;;9.15;4.53;;;18.90;99.90;;;;;;5033407;28;20136;-77
2021/06/13 01:19:32;;;;;;;7.70;4.32;;;18.80;99.90;;;;;;5033493;28;20136;-77
2021/06/13 01:22:37;;;;;;;8.55;4.15;;;18.80;99.90;;;;;;5033309;28;20026;-77
2021/06/13 01:25:07;;;;;;;10.48;5.28;;;18.80;99.90;;;;;;5033205;28;20017;-77
2021/06/13 01:27:48;;;;;;;9.23;4.30;;;18.70;99.90;;;;;;5034438;28;20053;-77
2021/06/13 01:30:15;;;;;;;8.50;4.38;;;18.60;99.90;;;;;;5034658;28;20078;-77
2021/06/13 01:32:41;;;;;;;8.00;4.20;;;18.60;99.90;;;;;;5034579;28;20132;-77
2021/06/13 01:35:11;;;;;;;7.97;4.28;;;18.60;99.90;;;;;;5032694;28;20504;-77
2021/06/13 01:37:39;;;;;;;9.48;4.20;;;18.50;99.90;;;;;;5033080;28;20025;-77
2021/06/13 01:40:08;;;;;;;7.55;3.85;;;18.50;99.90;;;;;;5034083;28;20041;-77
2021/06/13 01:42:36;;;;;;;8.35;4.43;;;18.50;99.90;;;;;;5034113;28;20025;-78
2021/06/13 01:45:06;;;;;;;9.23;4.45;;;18.50;99.90;;;;;;5032782;28;20076;-77
2021/06/13 01:47:35;;;;;;;9.93;4.63;;;18.50;99.90;;;;;;5032801;28;20461;-77
2021/06/13 01:50:03;;;;;;;9.65;4.38;;;18.50;99.90;;;;;;5032744;28;20527;-77
2021/06/13 01:52:32;;;;;;;7.47;4.60;;;18.40;99.90;;;;;;5032651;28;20108;-77
2021/06/13 01:54:59;;;;;;;9.10;4.28;;;18.40;99.90;;;;;;5033208;28;20391;-77
2021/06/13 01:57:27;;;;;;;8.05;4.28;;;18.40;99.90;;;;;;5032568;28;20113;-77
2021/06/13 01:59:55;;;;;;;14.88;4.10;;;18.40;99.90;;;;;;5033722;28;20036;-77
2021/06/13 02:02:23;;;;;;;7.28;4.00;;;18.30;99.90;;;;;;5034043;28;20491;-77
2021/06/13 02:04:49;;;;;;;8.32;3.90;;;18.30;99.90;;;;;;5032443;28;20064;-77
2021/06/13 02:07:17;;;;;;;7.75;3.78;;;18.30;99.90;;;;;;5033628;28;20481;-77
2021/06/13 02:09:45;;;;;;;7.15;4.15;;;18.30;99.90;;;;;;5033630;28;20033;-78
2021/06/13 02:12:12;;;;;;;7.20;3.88;;;18.40;99.90;;;;;;5033886;28;20080;-77
2021/06/13 02:14:40;;;;;;;6.93;4.20;;;18.20;99.90;;;;;;5033558;28;20112;-77
2021/06/13 02:17:07;;;;;;;6.72;3.90;;;18.20;99.90;;;;;;5032307;28;20465;-77
2021/06/13 02:19:35;;;;;;;7.97;3.97;;;18.30;99.90;;;;;;5032166;28;20033;-77
2021/06/13 02:22:01;;;;;;;9.98;4.30;;;18.40;99.90;;;;;;5033464;28;20473;-77
2021/06/13 02:24:38;;;;;;;9.80;3.85;;;18.20;99.90;;;;;;5033442;28;20017;-77
2021/06/13 02:27:04;;;;;;;7.45;3.75;;;18.20;99.90;;;;;;5032177;28;20500;-77
2021/06/13 02:29:32;;;;;;;8.75;3.85;;;18.20;99.90;;;;;;5033349;28;20036;-77
2021/06/13 02:31:59;;;;;;;10.23;3.97;;;18.10;99.90;;;;;;5033372;28;20032;-77
2021/06/13 02:34:30;;;;;;;7.13;4.00;;;18.10;99.90;;;;;;5033260;28;20460;-77
2021/06/13 02:36:59;;;;;;;8.43;4.15;;;18.10;99.90;;;;;;5033276;28;20033;-77
2021/06/13 02:39:25;;;;;;;8.35;3.80;;;18.10;99.90;;;;;;5032217;28;20040;-77
2021/06/13 02:41:51;;;;;;;9.85;3.72;;;18.20;99.90;;;;;;5033235;28;20025;-77
2021/06/13 02:44:20;;;;;;;12.55;3.83;;;18.20;99.90;;;;;;5031924;28;20049;-78
2021/06/13 02:46:46;;;;;;;9.15;4.05;;;18.30;99.90;;;;;;5033470;28;20104;-78
2021/06/13 02:49:12;;;;;;;8.40;3.42;;;18.30;99.90;;;;;;5033430;28;20100;-77
2021/06/13 02:52:09;;;;;;;6.80;3.40;;;18.10;99.90;;;;;;5031889;28;20519;-77
2021/06/13 02:54:37;;;;;;;9.52;3.47;;;18.10;99.90;;;;;;5033177;28;20392;-77
2021/06/13 02:57:11;;;;;;;12.07;3.47;;;17.90;99.90;;;;;;5033105;28;20544;-78
2021/06/13 02:59:50;;;;;;;7.38;3.70;;;17.90;99.90;;;;;;5033373;28;20026;-77
2021/06/13 03:02:23;;;;;;;6.68;2.95;;;17.80;99.90;;;;;;5031805;28;20549;-77
2021/06/13 03:04:50;;;;;;;6.05;3.67;;;17.80;99.90;;;;;;5032178;28;20043;-77
2021/06/13 03:07:20;;;;;;;11.40;3.55;;;17.90;99.90;;;;;;5037098;28;20022;-77
2021/06/13 03:09:49;;;;;;;8.75;3.47;;;17.90;99.90;;;;;;5036997;28;20076;-77
2021/06/13 03:12:16;;;;;;;8.02;3.50;;;17.90;99.90;;;;;;5036911;28;20025;-77
2021/06/13 03:14:43;;;;;;;10.82;3.17;;;17.80;99.90;;;;;;5035624;28;20025;-77
2021/06/13 03:17:11;;;;;;;10.65;3.40;;;17.70;99.90;;;;;;5035561;28;20456;-77
2021/06/13 03:19:40;;;;;;;7.25;3.35;;;17.50;99.90;;;;;;5035467;28;20120;-77
2021/06/13 03:22:07;;;;;;;10.93;3.78;;;17.50;99.90;;;;;;5035461;28;20021;-77
2021/06/13 03:24:35;;;;;;;11.73;4.55;;;17.60;99.90;;;;;;5036997;28;20045;-77
2021/06/13 03:27:02;;;;;;;6.57;3.60;;;17.40;99.90;;;;;;5035459;28;20028;-77
2021/06/13 03:29:30;;;;;;;10.88;3.88;;;17.40;99.90;;;;;;5035309;28;20029;-77
2021/06/13 03:31:58;;;;;;;10.52;3.58;;;17.50;99.90;;;;;;5035853;28;20469;-77
2021/06/13 03:34:24;;;;;;;8.85;3.80;;;17.50;99.90;;;;;;5036495;28;20037;-77
2021/06/13 03:36:50;;;;;;;10.65;4.05;;;17.60;99.90;;;;;;5035060;28;20401;-77
2021/06/13 03:39:17;;;;;;;5.63;2.97;;;17.60;99.90;;;;;;5036418;28;20026;-77
2021/06/13 03:41:44;;;;;;;10.43;3.70;;;17.60;99.90;;;;;;5036326;28;20033;-77
2021/06/13 03:44:10;;;;;;;6.68;3.50;;;17.50;99.90;;;;;;5036388;28;20409;-77
2021/06/13 03:46:37;;;;;;;8.93;3.50;;;17.40;99.90;;;;;;5035274;28;20493;-77
2021/06/13 03:49:05;;;;;;;6.80;3.45;;;17.30;99.90;;;;;;5036288;28;20020;-77
2021/06/13 03:51:31;;;;;;;10.85;3.60;;;17.40;99.90;;;;;;5036254;28;20041;-77
2021/06/13 03:53:58;;;;;;;8.40;3.22;;;17.30;99.90;;;;;;5036712;28;20034;-77
2021/06/13 03:56:36;;;;;;;12.18;4.05;;;17.30;99.90;;;;;;5034840;28;20053;-77
2021/06/13 03:59:03;;;;;;;6.50;3.30;;;17.30;99.90;;;;;;5036401;28;20079;-77
2021/06/13 04:01:29;;;;;;;6.35;3.30;;;17.40;99.90;;;;;;5034661;28;20044;-77
2021/06/13 04:03:56;;;;;;;6.47;3.30;;;17.40;99.90;;;;;;5034769;28;20053;-77
2021/06/13 04:06:23;;;;;;;9.77;3.22;;;17.50;99.90;;;;;;5034654;28;20021;-77
2021/06/13 04:08:50;;;;;;;7.05;3.50;;;17.60;99.90;;;;;;5035905;28;20026;-77
2021/06/13 04:11:21;;;;;;;14.48;3.65;;;17.80;99.90;;;;;;5036182;28;20057;-77
2021/06/13 04:13:47;;;;;;;8.07;3.22;;;17.60;99.90;;;;;;5034536;28;20030;-77
2021/06/13 04:16:14;;;;;;;8.80;3.15;;;17.60;99.90;;;;;;5034311;28;20032;-77
2021/06/13 04:18:41;;;;;;;10.15;3.60;;;17.40;99.90;;;;;;5035268;28;20025;-77
2021/06/13 04:21:10;;;;;;;9.15;3.22;;;17.40;99.90;;;;;;5034329;28;20079;-77
2021/06/13 04:23:39;;;;;;;8.30;3.08;;;17.50;99.90;;;;;;5034337;28;20143;-77
2021/06/13 04:26:05;;;;;;;6.32;3.33;;;17.50;99.90;;;;;;5034313;28;20025;-77
2021/06/13 04:28:31;;;;;;;7.15;3.38;;;17.30;99.90;;;;;;5035574;28;20489;-77
2021/06/13 04:31:03;;;;;;;11.05;3.80;;;17.50;99.90;;;;;;5035090;28;20483;-77
2021/06/13 04:33:33;;;;;;;7.68;3.15;;;17.50;99.90;;;;;;5035448;28;20362;-77
2021/06/13 04:36:00;;;;;;;7.57;2.95;;;17.50;99.90;;;;;;5035180;28;20049;-77
2021/06/13 04:38:25;;;;;;;12.30;4.10;;;17.60;99.90;;;;;;5034131;28;20033;-77
2021/06/13 04:40:51;;;;;;;7.57;3.20;;;17.60;99.90;;;;;;5035224;28;20476;-77
2021/06/13 04:43:17;;;;;;;10.95;3.50;;;17.60;99.90;;;;;;5034022;28;20021;-77
2021/06/13 04:45:43;;;;;;;6.32;2.97;;;17.60;99.90;;;;;;5033950;28;20049;-78
2021/06/13 04:48:09;;;;;;;6.57;3.10;;;17.60;99.90;;;;;;5033985;28;20061;-77
2021/06/13 04:50:35;;;;;;;7.63;3.40;;;17.60;99.90;;;;;;5033925;28;20079;-77
2021/06/13 04:53:04;;;;;;;7.60;3.40;;;17.60;99.90;;;;;;5035107;28;20111;-77
2021/06/13 04:55:38;;;;;;;12.95;4.13;;;17.60;99.90;;;;;;5034054;28;20393;-77
2021/06/13 04:58:10;;;;;;;11.65;3.80;;;17.60;99.90;;;;;;5001613;28;20021;-77
2021/06/13 05:00:36;;;;;;;6.63;3.28;;;17.60;99.90;;;;;;5034837;28;20556;-77
2021/06/13 05:03:02;;;;;;;12.52;4.05;;;18.00;99.90;;;;;;5035185;28;20096;-77
2021/06/13 05:05:27;;;;;;;11.02;4.03;;;17.90;99.90;;;;;;5035103;28;20017;-77
2021/06/13 05:07:53;;;;;;;10.18;4.10;;;17.90;99.90;;;;;;5033545;28;20026;-77
2021/06/13 05:10:19;;;;;;;9.48;3.85;;;17.90;99.90;;;;;;5034778;28;20488;-77
2021/06/13 05:12:53;;;;;;;7.35;3.72;;;17.90;99.90;;;;;;5034959;28;20053;-78
2021/06/13 05:15:21;;;;;;;10.07;3.67;;;18.00;99.90;;;;;;5033528;28;20492;-78
2021/06/13 05:17:47;;;;;;;10.15;4.10;;;18.10;99.90;;;;;;5033327;28;20026;-77
2021/06/13 05:20:14;;;;;;;10.73;4.10;;;18.20;99.90;;;;;;5034434;28;20021;-77
2021/06/13 05:23:01;;;;;;;15.80;4.13;;;18.30;99.90;;;;;;5033228;28;20018;-77
2021/06/13 05:25:29;;;;;;;11.32;4.05;;;18.30;99.90;;;;;;5034699;28;20025;-77
2021/06/13 05:27:56;;;;;;;8.40;3.70;;;18.30;99.90;;;;;;5032818;28;20033;-77
2021/06/13 05:30:24;;;;;;;10.07;3.90;;;18.30;99.90;;;;;;5033938;28;20392;-77
2021/06/13 05:32:49;;;;;;;9.70;3.53;;;18.30;99.90;;;;;;5034360;28;20485;-77
2021/06/13 05:35:16;;;;;;;9.63;3.58;;;18.30;99.90;;;;;;5032761;28;20119;-77
2021/06/13 05:37:42;;;;;;;8.45;3.70;;;18.30;99.90;;;;;;5032960;28;20167;-77
2021/06/13 05:40:09;;;;;;;10.10;3.65;;;18.20;99.90;;;;;;5034144;28;20537;-77
2021/06/13 05:42:35;;;;;;;12.23;4.45;;;18.10;99.90;;;;;;5034434;28;20385;-77
2021/06/13 05:45:02;;;;;;;8.75;3.40;;;18.30;99.90;;;;;;5034348;28;20480;-77
2021/06/13 05:47:28;;;;;;;9.50;3.42;;;18.30;99.90;;;;;;5034088;28;20488;-77
2021/06/13 05:49:53;;;;;;;10.68;3.45;;;18.30;99.90;;;;;;5032795;28;20029;-77
2021/06/13 05:52:19;;;;;;;8.18;3.38;;;18.30;99.90;;;;;;5032675;28;20026;-77
2021/06/13 05:54:45;;;;;;;10.50;3.40;;;18.40;99.90;;;;;;5032652;28;20036;-77
2021/06/13 05:57:10;;;;;;;6.25;3.33;;;18.30;99.90;;;;;;5032643;28;20060;-77
2021/06/13 05:59:36;;;;;;;8.52;3.92;;;18.40;99.90;;;;;;5032479;28;20025;-77
2021/06/13 06:02:02;;;;;;;7.25;3.35;;;18.50;99.90;;;;;;5033747;28;20489;-77
2021/06/13 06:04:27;;;;;;;9.15;3.40;;;18.60;99.90;;;;;;5034015;28;20036;-77
2021/06/13 06:06:53;;;;;;;7.82;3.00;;;18.70;99.90;;;;;;5033678;28;20424;-77
2021/06/13 06:09:19;;;;;;;8.27;3.35;;;18.70;99.90;;;;;;5032504;28;20448;-77
2021/06/13 06:11:44;;;;;;;12.40;3.30;;;18.70;99.90;;;;;;5032367;28;20485;-77
2021/06/13 06:14:10;;;;;;;8.75;3.40;;;18.50;99.90;;;;;;5032575;28;20052;-77
2021/06/13 06:16:36;;;;;;;6.40;3.05;;;18.60;99.90;;;;;;5032270;28;20029;-77
2021/06/13 06:19:02;;;;;;;9.98;3.40;;;18.50;99.90;;;;;;5032227;28;20067;-77
2021/06/13 06:21:28;;;;;;;7.93;2.95;;;18.50;99.90;;;;;;5033680;28;20021;-77
2021/06/13 06:23:53;;;;;;;6.57;3.03;;;18.50;99.90;;;;;;5032142;28;20508;-77
2021/06/13 06:26:20;;;;;;;8.60;3.40;;;18.50;99.90;;;;;;5033464;28;20025;-77
2021/06/13 06:28:47;;;;;;;8.18;3.60;;;18.50;99.90;;;;;;5032112;28;20112;-77
2021/06/13 06:31:13;;;;;;;7.88;3.10;;;18.50;99.90;;;;;;5032149;28;20467;-77
2021/06/13 06:33:39;;;;;;;14.77;3.80;;;18.60;99.90;;;;;;5033342;28;20504;-77
2021/06/13 06:36:05;;;;;;;9.13;3.17;;;18.70;99.90;;;;;;5031908;28;20103;-77
2021/06/13 06:38:32;;;;;;;9.25;3.58;;;18.70;99.90;;;;;;5032015;28;20560;-77
2021/06/13 06:40:58;;;;;;;13.80;4.35;;;18.70;99.90;;;;;;5033149;28;20026;-78
2021/06/13 06:43:25;;;;;;;10.68;3.38;;;18.90;99.90;;;;;;5033525;28;20025;-77
2021/06/13 06:45:51;;;;;;;7.15;2.92;;;19.00;99.90;;;;;;5033236;28;20389;-77
2021/06/13 06:48:16;;;;;;;10.02;3.58;;;19.00;99.90;;;;;;5031948;28;20021;-77
2021/06/13 06:50:42;;;;;;;9.02;3.75;;;19.10;99.90;;;;;;5031824;28;20473;-77
2021/06/13 06:53:09;;;;;;;9.27;3.38;;;19.10;99.90;;;;;;5031919;28;20029;-77
2021/06/13 06:55:35;;;;;;;9.02;2.78;;;19.10;99.90;;;;;;5033129;28;20038;-77
2021/06/13 06:58:01;;;;;;;11.82;3.35;;;19.20;99.90;;;;;;5031761;28;20025;-77
2021/06/13 07:00:27;;;;;;;9.05;3.30;;;19.30;99.90;;;;;;5032997;28;20495;-77
2021/06/13 07:02:52;;;;;;;6.70;2.97;;;19.30;99.90;;;;;;5033031;28;20135;-77
2021/06/13 07:05:18;;;;;;;9.88;3.55;;;19.40;99.90;;;;;;5031795;28;20021;-77
2021/06/13 07:07:44;;;;;;;9.23;3.00;;;19.20;99.90;;;;;;5032999;28;20095;-77
2021/06/13 07:10:12;;;;;;;7.47;3.03;;;19.40;99.90;;;;;;5031719;28;20025;-77
2021/06/13 07:12:38;;;;;;;7.43;3.10;;;19.40;99.90;;;;;;5033492;28;20028;-77
2021/06/13 07:15:06;;;;;;;11.93;3.22;;;19.50;99.90;;;;;;5032959;28;20381;-77
2021/06/13 07:17:32;;;;;;;6.63;3.35;;;19.50;99.90;;;;;;5032906;28;20052;-77
2021/06/13 07:19:58;;;;;;;12.75;3.30;;;19.50;99.90;;;;;;5031445;28;20026;-76
2021/06/13 07:22:24;;;;;;;7.95;3.00;;;19.40;99.90;;;;;;5031384;28;20156;-77
2021/06/13 07:24:52;;;;;;;10.18;3.35;;;19.40;99.90;;;;;;5032697;28;20053;-77
2021/06/13 07:27:18;;;;;;;9.57;3.10;;;19.50;99.90;;;;;;5032839;28;20028;-77
2021/06/13 07:29:44;;;;;;;8.38;3.10;;;19.60;99.90;;;;;;5031548;28;20025;-77
2021/06/13 07:32:10;;;;;;;6.35;3.20;;;19.60;99.90;;;;;;5031558;28;20031;-77
2021/06/13 07:34:36;;;;;;;12.35;3.58;;;19.60;99.90;;;;;;5031174;28;20064;-77
2021/06/13 07:37:03;;;;;;;8.48;3.22;;;19.60;99.90;;;;;;5031532;28;20032;-77
2021/06/13 07:39:29;;;;;;;8.90;2.83;;;19.70;99.90;;;;;;5033049;28;20043;-77
2021/06/13 07:41:55;;;;;;;8.23;3.17;;;20.00;99.90;;;;;;5032933;28;20381;-77
2021/06/13 07:44:21;;;;;;;6.75;2.97;;;19.90;99.90;;;;;;5032684;28;20035;-77
2021/06/13 07:46:46;;;;;;;7.43;2.90;;;20.00;99.90;;;;;;5031672;28;20030;-77
2021/06/13 07:49:12;;;;;;;7.30;3.38;;;20.20;99.90;;;;;;5033137;28;20032;-77
2021/06/13 07:51:38;;;;;;;9.60;2.85;;;20.00;99.90;;;;;;5031472;28;20076;-77
2021/06/13 07:54:04;;;;;;;8.77;2.95;;;19.80;99.90;;;;;;5034899;28;20029;-77
2021/06/13 07:56:30;;;;;;;10.93;3.00;;;19.80;99.90;;;;;;5034829;28;20067;-77
2021/06/13 07:58:56;;;;;;;14.65;3.38;;;19.80;99.90;;;;;;5036078;28;20053;-77
2021/06/13 08:01:21;;;;;;;7.80;2.40;;;20.00;99.90;;;;;;5034707;28;20472;-77
2021/06/13 08:03:47;;;;;;;6.20;2.30;;;20.00;99.90;;;;;;5034943;28;20040;-77
2021/06/13 08:06:13;;;;;;;9.40;2.65;;;20.10;99.90;;;;;;5034665;28;20026;-76
2021/06/13 08:08:38;;;;;;;7.50;2.90;;;20.10;99.90;;;;;;5034693;28;20029;-77
2021/06/13 08:11:05;;;;;;;8.90;2.80;;;20.20;99.90;;;;;;5035911;28;20029;-77
2021/06/13 08:13:32;;;;;;;8.95;2.80;;;20.40;99.90;;;;;;5034555;28;20029;-77
2021/06/13 08:15:57;;;;;;;9.77;2.83;;;20.50;99.90;;;;;;5035780;28;20426;-77
2021/06/13 08:18:23;;;;;;;6.93;2.55;;;20.50;99.90;;;;;;5035755;28;20060;-77
2021/06/13 08:20:50;;;;;;;8.80;2.97;;;20.70;99.90;;;;;;5034323;28;20028;-76
2021/06/13 08:23:15;;;;;;;9.00;2.78;;;20.50;99.90;;;;;;5034447;28;20602;-77
2021/06/13 08:25:41;;;;;;;7.07;2.70;;;20.60;99.90;;;;;;5035672;28;20050;-77
2021/06/13 08:28:07;;;;;;;10.73;2.70;;;20.60;99.90;;;;;;5034318;28;20018;-77
2021/06/13 08:30:32;;;;;;;8.23;2.85;;;20.70;99.90;;;;;;5035580;28;20029;-76
2021/06/13 08:32:59;;;;;;;6.63;2.70;;;20.80;99.90;;;;;;5034206;28;20036;-77
2021/06/13 08:35:24;;;;;;;10.05;2.40;;;20.90;99.90;;;;;;5035316;28;20412;-77
2021/06/13 08:37:50;;;;;;;6.47;2.58;;;21.00;99.90;;;;;;5034201;28;20026;-77
2021/06/13 08:40:17;;;;;;;7.75;2.38;;;21.00;99.90;;;;;;5034027;28;20033;-77
2021/06/13 08:42:43;;;;;;;13.45;2.80;;;21.00;99.90;;;;;;5033998;28;20049;-77
2021/06/13 08:45:11;;;;;;;5.78;2.33;;;21.00;99.90;;;;;;5035229;28;20026;-77
2021/06/13 08:47:38;;;;;;;7.00;2.30;;;21.10;99.90;;;;;;5033928;28;20017;-77
2021/06/13 08:50:07;;;;;;;7.05;2.50;;;21.10;99.90;;;;;;5033897;28;20028;-77
2021/06/13 08:52:33;;;;;;;10.52;2.38;;;21.20;99.90;;;;;;5035086;28;20029;-77
2021/06/13 08:54:59;;;;;;;7.82;2.38;;;21.30;99.90;;;;;;5033799;28;20028;-76
2021/06/13 08:57:26;;;;;;;8.05;2.38;;;21.50;99.90;;;;;;5035049;28;20056;-76
2021/06/13 08:59:52;;;;;;;9.00;2.22;;;21.60;99.90;;;;;;5033676;28;20029;-77
2021/06/13 09:02:18;;;;;;;7.18;2.40;;;21.70;99.90;;;;;;5033890;28;20025;-77
2021/06/13 09:04:43;;;;;;;7.88;2.60;;;21.70;99.90;;;;;;5033391;28;20022;-77
2021/06/13 09:07:23;;;;;;;7.70;2.22;;;22.00;99.90;;;;;;5034012;28;20033;-77
2021/06/13 09:09:50;;;;;;;9.38;2.30;;;21.80;99.90;;;;;;5035065;28;20022;-77
2021/06/13 09:12:17;;;;;;;7.35;2.55;;;22.00;99.90;;;;;;5034952;28;20064;-76
2021/06/13 09:14:47;;;;;;;9.45;2.70;;;22.10;99.90;;;;;;5035174;28;20048;-77
2021/06/13 09:17:21;;;;;;;7.53;2.60;;;22.20;99.90;;;;;;5034607;28;20037;-77
2021/06/13 09:20:05;;;;;;;;;;;22.30;99.90;;;;;;5034983;28;20022;-77
2021/06/13 09:22:32;;;;;;;7.97;2.50;;;22.40;99.90;;;;;;5033337;28;19912;-77
2021/06/13 09:25:13;;;;;;;3.58;2.08;;;22.60;99.90;;;;;;5033248;28;20029;-77
2021/06/13 09:27:40;;;;;;;6.65;2.15;;;22.30;99.90;;;;;;5033250;28;20152;-77
2021/06/13 09:30:08;;;;;;;6.15;2.42;;;21.90;99.90;;;;;;5034416;28;20028;-77
2021/06/13 09:33:13;;;;;;;8.02;2.60;;;22.30;99.90;;;;;;5033240;28;20017;-77
2021/06/13 09:35:41;;;;;;;5.77;2.13;;;22.40;99.90;;;;;;5034077;28;20501;-77
2021/06/13 09:38:11;;;;;;;8.85;2.50;;;22.40;99.90;;;;;;5034311;28;20362;-77
2021/06/13 09:40:39;;;;;;;4.45;2.00;;;22.40;99.90;;;;;;5032875;28;20029;-77
2021/06/13 09:43:21;;;;;;;9.65;2.58;;;22.80;99.90;;;;;;5034173;28;20024;-77
2021/06/13 09:45:49;;;;;;;7.38;2.03;;;22.80;98.40;;;;;;5034443;28;20029;-77
2021/06/13 09:48:16;;;;;;;3.85;1.83;;;22.90;99.90;;;;;;5034037;28;20070;-76
2021/06/13 09:50:44;;;;;;;6.72;2.10;;;23.00;98.50;;;;;;5034051;28;20045;-76
2021/06/13 09:53:26;;;;;;;5.05;1.77;;;22.40;98.80;;;;;;5034004;28;20481;-77
2021/06/13 09:56:15;;;;;;;4.20;1.77;;;22.70;99.40;;;;;;5034265;28;20033;-76
2021/06/13 09:58:53;;;;;;;5.22;1.90;;;23.00;99.60;;;;;;5033891;28;20026;-77
2021/06/13 10:01:20;;;;;;;5.03;2.03;;;23.30;97.40;;;;;;5032483;28;20028;-76
2021/06/13 10:03:48;;;;;;;5.25;1.98;;;23.50;98.00;;;;;;5033818;28;20025;-77
2021/06/13 10:06:20;;;;;;;7.88;1.98;;;23.90;98.20;;;;;;5033764;28;20075;-77
2021/06/13 10:08:49;;;;;;;4.78;1.70;;;24.10;97.40;;;;;;5033764;28;20044;-77
2021/06/13 10:11:18;;;;;;;9.02;1.88;;;23.90;94.70;;;;;;5033936;28;20029;-77
2021/06/13 10:13:52;;;;;;;4.35;1.50;;;24.20;93.60;;;;;;5032400;28;20025;-77
2021/06/13 10:16:29;;;;;;;6.03;1.70;;;24.10;94.70;;;;;;5033065;28;20388;-77
2021/06/13 10:19:06;;;;;;;4.15;1.58;;;23.90;93.20;;;;;;5033557;28;20033;-77
2021/06/13 10:21:37;;;;;;;4.10;1.70;;;23.90;94.50;;;;;;5032207;28;20032;-77
2021/06/13 10:24:25;;;;;;;6.68;1.77;;;24.20;92.50;;;;;;5032291;28;20022;-77
2021/06/13 10:26:55;;;;;;;4.10;1.50;;;24.30;93.60;;;;;;5033380;28;20021;-77
2021/06/13 10:29:23;;;;;;;5.50;1.70;;;24.80;93.40;;;;;;5032186;28;20023;-77
2021/06/13 10:31:51;;;;;;;4.25;1.50;;;24.90;93.50;;;;;;5033332;28;20077;-77
2021/06/13 10:34:18;;;;;;;6.97;1.48;;;24.90;91.20;;;;;;5031926;28;20060;-77
2021/06/13 10:36:44;;;;;;;3.72;1.13;;;25.40;91.40;;;;;;5033217;28;20037;-77
2021/06/13 10:39:15;;;;;;;3.88;1.40;;;25.50;91.00;;;;;;5033989;28;20162;-77
2021/06/13 10:41:42;;;;;;;5.47;1.50;;;25.50;89.30;;;;;;5033546;28;20119;-77
2021/06/13 10:44:11;;;;;;;2.92;1.48;;;25.60;89.20;;;;;;5033550;28;20025;-77
2021/06/13 10:46:39;;;;;;;4.53;1.70;;;25.60;91.60;;;;;;5031903;28;20025;-77
2021/06/13 10:49:06;;;;;;;6.88;1.85;;;25.60;90.70;;;;;;5031892;28;20033;-77
2021/06/13 10:51:45;;;;;;;3.85;1.55;;;25.50;90.20;;;;;;5033516;28;20421;-77
2021/06/13 10:54:28;;;;;;;2.50;1.10;;;25.50;90.20;;;;;;5033201;28;20033;-77
2021/06/13 10:57:19;;;;;;;3.25;1.23;;;25.70;83.20;;;;;;5033454;28;20017;-77
2021/06/13 10:59:46;;;;;;;4.25;1.10;;;25.80;78.90;;;;;;5031695;28;20037;-77
2021/06/13 11:02:17;;;;;;;3.80;1.15;;;26.00;81.70;;;;;;5033116;28;20550;-77
2021/06/13 11:04:48;;;;;;;5.95;1.40;;;25.80;82.80;;;;;;5031858;28;20389;-77
2021/06/13 11:07:43;;;;;;;5.15;1.25;;;26.40;82.80;;;;;;5031744;28;20021;-78
2021/06/13 11:10:15;;;;;;;3.10;1.08;;;26.90;81.50;;;;;;5028075;28;20041;-78
2021/06/13 11:12:47;;;;;;;4.18;1.20;;;;;;;;;;5033394;28;20034;-78
2021/06/13 11:15:18;;;;;;;4.00;1.00;;;27.20;77.30;;;;;;5031711;28;20036;-78
2021/06/13 11:17:56;;;;;;;4.75;0.90;;;27.00;69.90;;;;;;5033277;28;20176;-78
2021/06/13 11:20:29;;;;;;;7.50;1.20;;;27.30;67.40;;;;;;5032945;28;20034;-78
2021/06/13 11:22:56;;;;;;;3.08;1.20;;;27.30;78.50;;;;;;5031673;28;20029;-78
2021/06/13 11:25:27;;;;;;;2.88;1.23;;;27.20;73.90;;;;;;5031639;28;20018;-78
2021/06/13 11:28:12;;;;;;;3.58;1.40;;;27.50;77.00;;;;;;5035321;28;20034;-78
2021/06/13 11:30:41;;;;;;;4.75;1.25;;;27.00;79.80;;;;;;5035375;28;20083;-78
2021/06/13 11:33:07;;;;;;;3.10;1.00;;;27.30;80.90;;;;;;5036859;28;20022;-78
2021/06/13 11:35:42;;;;;;;1.38;0.80;;;27.70;72.60;;;;;;5035111;28;20064;-78
2021/06/13 11:38:14;;;;;;;2.15;0.60;;;27.70;61.20;;;;;;5036574;28;20397;-78
2021/06/13 11:41:01;;;;;;;4.47;1.35;;;27.90;66.80;;;;;;5035130;28;20556;-78
2021/06/13 11:43:43;;;;;;;6.10;1.90;;;27.90;75.80;;;;;;5037060;28;20100;-78
2021/06/13 11:46:10;;;;;;;5.05;1.35;;;27.90;70.70;;;;;;5035291;28;20469;-78
2021/06/13 11:48:54;;;;;;;4.70;1.13;;;27.70;73.40;;;;;;5036379;28;20048;-78
2021/06/13 11:51:20;;;;;;;2.67;1.00;;;28.10;71.50;;;;;;5036392;28;20036;-78
2021/06/13 11:53:53;;;;;;;3.45;1.23;;;28.40;64.90;;;;;;5034978;28;20033;-78
2021/06/13 11:56:34;;;;;;;2.65;0.93;;;28.30;71.90;;;;;;5035007;28;20432;-78
2021/06/13 11:59:23;;;;;;;1.75;1.00;;;28.20;69.90;;;;;;5034951;28;20480;-78
2021/06/13 12:02:01;;;;;;;3.70;1.23;;;28.50;62.40;;;;;;5034825;28;20119;-78
2021/06/13 12:04:29;;;;;;;3.00;1.10;;;28.20;62.80;;;;;;5034879;28;20021;-78
2021/06/13 12:06:56;;;;;;;8.43;1.02;;;28.50;62.80;;;;;;5036083;28;20021;-79
2021/06/13 12:09:23;;;;;;;4.28;0.98;;;28.40;58.90;;;;;;5034752;28;20080;-78
2021/06/13 12:11:54;;;;;;;3.92;0.90;;;28.50;73.70;;;;;;5034704;28;20026;-79
2021/06/13 12:14:26;;;;;;;2.20;0.75;;;28.40;69.60;;;;;;5034692;28;20029;-78
2021/06/13 12:16:58;;;;;;;3.33;1.00;;;28.80;59.00;;;;;;5034584;28;20027;-78
2021/06/13 12:19:30;;;;;;;3.88;1.70;;;28.90;62.50;;;;;;5036108;28;20030;-78
2021/06/13 12:22:16;;;;;;;1.83;0.73;;;28.90;58.30;;;;;;5034428;28;20080;-78
2021/06/13 12:27:27;;;;;;;2.97;0.70;;;29.30;60.40;;;;;;5035704;28;20014;-78
2021/06/13 12:29:59;;;;;;;6.82;1.00;;;29.00;54.50;;;;;;5034414;28;20055;-78
2021/06/13 12:32:25;;;;;;;2.20;1.05;;;29.60;58.80;;;;;;5035754;28;20048;-78
2021/06/13 12:35:14;;;;;;;4.30;1.10;;;29.70;59.80;;;;;;5035166;28;20139;-78
2021/06/13 12:37:58;;;;;;;2.75;0.70;;;30.10;55.00;;;;;;5033655;28;20025;-78
2021/06/13 12:40:24;;;;;;;2.53;1.02;;;30.30;51.50;;;;;;5034162;28;20033;-79
2021/06/13 12:42:50;;;;;;;3.15;0.73;;;29.60;53.00;;;;;;5035390;28;20080;-79
2021/06/13 12:45:18;;;;;;;2.03;0.60;;;29.50;53.80;;;;;;5034049;28;20049;-79
2021/06/13 12:47:47;;;;;;;2.65;0.80;;;30.10;53.90;;;;;;5035327;28;20022;-78
2021/06/13 12:50:34;;;;;;;1.95;0.77;;;30.30;55.00;;;;;;5035236;28;20029;-77
2021/06/13 12:53:01;;;;;;;3.25;0.70;;;29.80;51.90;;;;;;5033970;28;20056;-78
2021/06/13 12:55:47;;;;;;;1.58;0.75;;;29.20;50.60;;;;;;5035142;28;20083;-78
2021/06/13 12:58:15;;;;;;;3.65;0.70;;;29.30;51.80;;;;;;5035447;28;20025;-78
2021/06/13 13:00:42;;;;;;;2.85;0.82;;;;;;;;;;5033699;28;20033;-79